< Typhoon 197426 1974 Season Typhoon 197428 >
Typhoon 197427 (FAYE)
General InformationTrack Information on Google Maps || Disaster Info.ResourceGoogle EarthGE AnimationAtom FeedGeoJSON
Detalied Best Track (Time Zone = UTC)
Year Month Day Hour Lat. Long. Pressure (hPa) Wind (kt) Class Image Chart
1974 10 30 06 13.0 129.5 1004 0 2 -- Chart
1974 10 30 12 13.0 129.1 1004 0 2 -- Chart
1974 10 30 18 13.0 128.6 1002 0 2 -- Chart
1974 10 31 00 13.0 128.2 1002 0 2 -- Chart
1974 10 31 06 13.0 127.3 1002 0 2 -- Chart
1974 10 31 12 13.0 126.4 1002 0 2 -- Chart
1974 10 31 18 13.0 125.5 1002 0 2 -- Chart
1974 11 1 00 13.1 124.7 1000 0 2 -- Chart
1974 11 1 06 13.4 123.7 996 0 2 -- Chart
1974 11 1 12 13.8 122.6 996 0 2 -- Chart
1974 11 1 18 14.2 121.4 996 0 2 -- Chart
1974 11 2 00 14.5 119.3 990 0 9 -- Chart
1974 11 2 06 14.5 117.9 990 0 9 -- Chart
1974 11 2 12 14.4 116.6 990 0 9 -- Chart
1974 11 2 18 14.4 115.4 985 0 9 -- Chart
1974 11 3 00 14.4 114.3 985 0 9 -- Chart
1974 11 3 06 14.4 113.1 990 0 9 -- Chart
1974 11 3 12 14.5 112.0 992 0 9 -- Chart
1974 11 3 18 14.7 111.1 992 0 9 -- Chart
1974 11 4 00 15.0 110.1 992 0 9 -- Chart
1974 11 4 06 15.0 109.0 1000 0 2 -- Chart
1974 11 4 12 15.0 107.3 1000 0 2 -- Chart
1974 11 4 18 15.0 105.5 1000 0 2 -- Chart
1974 11 5 00 15.0 103.5 1004 0 2 -- Chart
1974 11 5 06 15.0 101.5 1004 0 2 -- Chart
1974 11 5 12 15.4 100.2 1006 0 2 -- Chart
1974 11 5 18 16.0 99.0 1006 0 2 -- Chart
Japan Meteorological Agency Best Track Data | Correction Date : 1990-10-17
< Typhoon 197426 1974 Season Typhoon 197428 >

Help